createdAt,value
2022-11-15T00:02:21.973Z,8.70
2022-11-15T00:08:42.595Z,8.70
2022-11-15T00:15:03.633Z,8.70
2022-11-15T00:21:24.230Z,8.70
2022-11-15T00:27:46.571Z,8.70
2022-11-15T00:34:07.656Z,8.60
2022-11-15T00:40:28.917Z,8.60
2022-11-15T00:46:49.429Z,8.60
2022-11-15T00:53:10.404Z,8.70
2022-11-15T00:59:31.183Z,8.60
2022-11-15T01:05:52.064Z,8.50
2022-11-15T01:12:12.857Z,8.60
2022-11-15T01:18:33.987Z,8.50
2022-11-15T01:24:54.651Z,8.50
2022-11-15T01:31:21.001Z,8.50
2022-11-15T01:37:41.961Z,8.50
2022-11-15T01:44:41.205Z,8.40
2022-11-15T01:51:07.743Z,8.50
2022-11-15T01:57:28.392Z,8.50
2022-11-15T02:03:57.968Z,8.60
2022-11-15T02:10:22.155Z,8.50
2022-11-15T02:17:09.178Z,8.50
2022-11-15T02:23:42.737Z,8.50
2022-11-15T02:30:22.895Z,8.40
2022-11-15T02:36:56.008Z,8.40
2022-11-15T02:43:51.183Z,8.50
2022-11-15T02:50:14.911Z,8.50
2022-11-15T02:56:35.729Z,8.50
2022-11-15T03:03:31.083Z,8.50
2022-11-15T03:10:08.980Z,8.50
2022-11-15T03:16:29.813Z,8.50
2022-11-15T03:22:51.849Z,8.50
2022-11-15T03:29:21.418Z,8.40
2022-11-15T03:35:45.791Z,8.50
2022-11-15T03:42:25.230Z,8.50
2022-11-15T03:48:51.777Z,8.50
2022-11-15T03:55:15.140Z,8.50
2022-11-15T04:01:35.996Z,8.40
2022-11-15T04:07:56.753Z,8.40
2022-11-15T04:14:18.057Z,8.40
2022-11-15T04:20:57.661Z,8.40
2022-11-15T04:27:18.392Z,8.40
2022-11-15T04:33:38.857Z,8.50
2022-11-15T04:39:59.539Z,8.50
2022-11-15T04:46:20.143Z,8.50
2022-11-15T04:52:51.486Z,8.50
2022-11-15T04:59:12.224Z,8.50
2022-11-15T05:05:33.257Z,8.50
2022-11-15T05:11:54.091Z,8.50
2022-11-15T05:18:18.262Z,8.50
2022-11-15T05:24:41.926Z,8.50
2022-11-15T05:31:07.314Z,8.50
2022-11-15T05:37:28.011Z,8.60
2022-11-15T05:43:50.736Z,8.60
2022-11-15T05:50:18.286Z,8.50
2022-11-15T05:56:39.715Z,8.60
2022-11-15T06:03:00.752Z,8.40
2022-11-15T06:09:21.658Z,8.40
2022-11-15T06:15:42.484Z,8.50
2022-11-15T06:22:03.588Z,8.60
2022-11-15T06:28:24.695Z,8.50
2022-11-15T06:34:45.210Z,8.60
2022-11-15T06:41:07.669Z,8.60
2022-11-15T06:47:28.481Z,8.70
2022-11-15T06:53:49.384Z,8.70
2022-11-15T07:00:11.337Z,8.70
2022-11-15T07:06:32.227Z,8.70
2022-11-15T07:12:53.832Z,8.80
2022-11-15T07:19:14.625Z,8.80
2022-11-15T07:25:35.780Z,8.80
2022-11-15T07:31:56.576Z,8.90
2022-11-15T07:38:20.775Z,9.00
2022-11-15T07:44:41.754Z,9.10
2022-11-15T07:51:03.488Z,9.00
2022-11-15T07:57:24.249Z,8.90
2022-11-15T08:03:45.026Z,9.00
2022-11-15T08:10:08.592Z,9.00
2022-11-15T08:16:30.171Z,9.10
2022-11-15T08:22:51.282Z,9.10
2022-11-15T08:29:11.866Z,9.10
2022-11-15T08:35:32.509Z,9.20
2022-11-15T08:41:54.126Z,9.30
2022-11-15T08:48:15.214Z,9.30
2022-11-15T08:54:37.434Z,9.40
2022-11-15T09:00:58.442Z,9.30
2022-11-15T09:07:19.652Z,9.30
2022-11-15T09:13:41.017Z,9.30
2022-11-15T09:20:01.814Z,9.30
2022-11-15T09:26:23.483Z,9.30
2022-11-15T09:32:44.208Z,9.30
2022-11-15T09:39:05.018Z,9.10
2022-11-15T09:45:34.527Z,9.20
2022-11-15T09:51:56.179Z,9.20
2022-11-15T09:58:25.504Z,9.30
2022-11-15T10:04:29.155Z,9.30
2022-11-15T10:10:40.744Z,9.20
2022-11-15T10:17:12.817Z,9.30
2022-11-15T10:23:20.185Z,9.30
2022-11-15T10:29:27.009Z,9.20
2022-11-15T10:35:32.206Z,9.20
2022-11-15T10:41:41.019Z,9.30
2022-11-15T10:47:43.438Z,9.20
2022-11-15T10:53:47.547Z,9.20
2022-11-15T10:59:53.489Z,9.10
2022-11-15T11:06:15.913Z,9.20
2022-11-15T11:12:29.739Z,9.20
2022-11-15T11:18:42.316Z,9.20
2022-11-15T11:25:03.763Z,9.10
2022-11-15T11:31:28.239Z,9.00
2022-11-15T11:38:01.403Z,9.10
2022-11-15T11:44:09.410Z,9.10
2022-11-15T11:50:16.979Z,9.00
2022-11-15T11:56:33.980Z,8.90
2022-11-15T12:02:43.382Z,8.90
2022-11-15T12:09:13.839Z,8.90
2022-11-15T12:15:28.058Z,8.90
2022-11-15T12:22:14.529Z,8.80
2022-11-15T12:28:27.200Z,8.90
2022-11-15T12:34:30.418Z,8.80
2022-11-15T12:40:57.627Z,8.80
2022-11-15T12:47:01.996Z,8.80
2022-11-15T12:53:26.682Z,8.80
2022-11-15T13:00:25.385Z,8.70
2022-11-15T13:06:44.246Z,8.60
2022-11-15T13:12:47.091Z,8.70
2022-11-15T13:18:55.966Z,8.60
2022-11-15T13:24:58.430Z,8.50
2022-11-15T13:31:22.085Z,8.60
2022-11-15T13:37:24.335Z,8.60
2022-11-15T13:43:35.566Z,8.50
2022-11-15T13:49:39.625Z,8.40
2022-11-15T13:55:44.958Z,8.40
2022-11-15T14:01:47.637Z,8.40
2022-11-15T14:08:03.149Z,8.40
2022-11-15T14:14:14.663Z,8.30
2022-11-15T14:20:26.612Z,8.40
2022-11-15T14:26:35.138Z,8.30
2022-11-15T14:32:51.553Z,8.30
2022-11-15T14:38:55.941Z,8.30
2022-11-15T14:44:58.254Z,8.30
2022-11-15T14:51:00.600Z,8.20
2022-11-15T14:57:02.802Z,8.20
2022-11-15T15:03:06.239Z,8.20
2022-11-15T15:09:08.390Z,8.10
2022-11-15T15:15:16.355Z,8.00
2022-11-15T15:21:24.597Z,8.10
2022-11-15T15:27:26.719Z,8.10
2022-11-15T15:33:29.074Z,8.20
2022-11-15T15:39:31.401Z,8.20
2022-11-15T15:45:34.045Z,8.10
2022-11-15T15:51:36.168Z,8.10
2022-11-15T15:57:38.462Z,8.10
2022-11-15T16:03:40.711Z,8.10
2022-11-15T16:10:01.738Z,8.10
2022-11-15T16:16:04.832Z,8.00
2022-11-15T16:22:07.875Z,8.00
2022-11-15T16:28:23.557Z,8.00
2022-11-15T16:34:30.011Z,8.00
2022-11-15T16:40:36.508Z,8.10
2022-11-15T16:46:41.399Z,8.10
2022-11-15T16:52:43.645Z,8.20
2022-11-15T16:58:45.893Z,8.10
2022-11-15T17:04:48.987Z,8.10
2022-11-15T17:10:51.559Z,8.10
2022-11-15T17:16:56.463Z,8.10
2022-11-15T17:22:58.810Z,8.10
2022-11-15T17:29:01.943Z,8.10
2022-11-15T17:35:11.937Z,8.00
2022-11-15T17:41:16.797Z,8.00
2022-11-15T17:47:19.093Z,8.00
2022-11-15T17:53:21.748Z,8.00
2022-11-15T17:59:24.101Z,8.00
2022-11-15T18:05:26.138Z,8.00
2022-11-15T18:11:33.494Z,7.90
2022-11-15T18:17:36.960Z,7.90
2022-11-15T18:23:39.813Z,7.90
2022-11-15T18:29:42.361Z,7.90
2022-11-15T18:35:44.609Z,7.90
2022-11-15T18:41:47.164Z,7.90
2022-11-15T18:47:49.302Z,7.90
2022-11-15T18:53:56.556Z,7.90
2022-11-15T18:59:58.717Z,7.80
2022-11-15T19:06:12.804Z,7.90
2022-11-15T19:12:15.392Z,7.80
2022-11-15T19:18:17.775Z,7.80
2022-11-15T19:24:20.012Z,7.90
2022-11-15T19:30:22.685Z,7.80
2022-11-15T19:36:28.949Z,7.80
2022-11-15T19:42:31.368Z,7.80
2022-11-15T19:48:35.160Z,7.80
2022-11-15T19:54:37.388Z,7.80
2022-11-15T20:00:39.563Z,7.80
2022-11-15T20:06:43.232Z,7.80
2022-11-15T20:12:45.469Z,7.80
2022-11-15T20:18:50.265Z,7.80
2022-11-15T20:24:52.534Z,7.80
2022-11-15T20:30:57.535Z,7.90
2022-11-15T20:36:59.746Z,7.80
2022-11-15T20:43:02.007Z,7.80
2022-11-15T20:49:04.174Z,7.70
2022-11-15T20:55:06.774Z,7.70
2022-11-15T21:01:11.767Z,7.70
2022-11-15T21:07:14.173Z,7.70
2022-11-15T21:13:17.012Z,7.70
2022-11-15T21:19:22.767Z,7.80
2022-11-15T21:25:29.783Z,7.70
2022-11-15T21:31:32.200Z,7.70
2022-11-15T21:37:34.567Z,7.70
2022-11-15T21:43:36.736Z,7.60
2022-11-15T21:49:39.277Z,7.60
2022-11-15T21:55:41.470Z,7.50
2022-11-15T22:02:02.183Z,7.50
2022-11-15T22:08:04.418Z,7.50
2022-11-15T22:14:07.291Z,7.50
2022-11-15T22:20:29.901Z,7.50
2022-11-15T22:26:31.659Z,7.40
2022-11-15T22:32:33.898Z,7.40
2022-11-15T22:38:37.182Z,7.40
2022-11-15T22:44:39.851Z,7.30
2022-11-15T22:50:43.129Z,7.40
2022-11-15T22:56:45.405Z,7.40
2022-11-15T23:02:51.797Z,7.40
2022-11-15T23:08:55.465Z,7.40
2022-11-15T23:14:57.955Z,7.40
2022-11-15T23:21:00.194Z,7.50
2022-11-15T23:27:05.457Z,7.40
2022-11-15T23:33:26.241Z,7.40
2022-11-15T23:39:29.021Z,7.40
2022-11-15T23:45:31.284Z,7.40
2022-11-15T23:51:33.854Z,7.40
2022-11-15T23:57:36.205Z,7.50
